createdAt,value
2019-05-31T00:00:03.427Z,17.30
2019-05-31T00:02:33.987Z,17.30
2019-05-31T00:05:04.710Z,17.30
2019-05-31T00:07:36.093Z,17.20
2019-05-31T00:10:07.011Z,17.20
2019-05-31T00:12:38.664Z,17.20
2019-05-31T00:15:09.406Z,17.20
2019-05-31T00:17:39.723Z,17.20
2019-05-31T00:20:10.516Z,17.10
2019-05-31T00:22:40.511Z,17.10
2019-05-31T00:25:11.634Z,17.10
2019-05-31T00:27:42.346Z,17.00
2019-05-31T00:30:13.468Z,17.10
2019-05-31T00:32:43.659Z,17.10
2019-05-31T00:35:14.038Z,17.10
2019-05-31T00:37:44.481Z,17.10
2019-05-31T00:40:16.236Z,17.10
2019-05-31T00:42:46.270Z,17.20
2019-05-31T00:45:17.057Z,17.10
2019-05-31T00:47:47.329Z,17.10
2019-05-31T00:50:18.040Z,17.20
2019-05-31T00:52:48.111Z,17.10
2019-05-31T00:55:18.404Z,17.10
2019-05-31T00:57:48.617Z,17.10
2019-05-31T01:00:19.709Z,17.10
2019-05-31T01:02:56.823Z,17.10
2019-05-31T01:05:27.028Z,17.10
2019-05-31T01:07:57.497Z,17.00
2019-05-31T01:10:27.756Z,17.10
2019-05-31T01:12:57.895Z,17.10
2019-05-31T01:15:28.231Z,17.10
2019-05-31T01:17:58.656Z,17.10
2019-05-31T01:20:29.517Z,17.10
2019-05-31T01:23:00.648Z,17.10
2019-05-31T01:25:31.027Z,17.10
2019-05-31T01:28:01.330Z,17.10
2019-05-31T01:30:31.865Z,17.10
2019-05-31T01:33:02.294Z,17.20
2019-05-31T01:35:32.292Z,17.20
2019-05-31T01:38:04.346Z,17.10
2019-05-31T01:40:34.916Z,17.10
2019-05-31T01:43:05.014Z,17.10
2019-05-31T01:45:35.552Z,17.20
2019-05-31T01:48:05.770Z,17.20
2019-05-31T01:50:36.102Z,17.20
2019-05-31T01:53:06.218Z,17.20
2019-05-31T01:55:37.089Z,17.20
2019-05-31T01:58:08.535Z,17.20
2019-05-31T02:00:38.813Z,17.10
2019-05-31T02:03:18.979Z,17.10
2019-05-31T02:05:49.117Z,17.10
2019-05-31T02:08:19.710Z,17.10
2019-05-31T02:10:49.889Z,17.10
2019-05-31T02:13:20.185Z,17.10
2019-05-31T02:15:50.131Z,17.10
2019-05-31T02:18:22.893Z,17.10
2019-05-31T02:20:53.228Z,17.10
2019-05-31T02:23:23.409Z,17.20
2019-05-31T02:25:53.666Z,17.20
2019-05-31T02:28:24.285Z,17.20
2019-05-31T02:30:54.620Z,17.20
2019-05-31T02:33:24.701Z,17.20
2019-05-31T02:35:54.813Z,17.20
2019-05-31T02:38:24.970Z,17.20
2019-05-31T02:40:55.410Z,17.20
2019-05-31T02:43:25.958Z,17.30
2019-05-31T02:45:56.296Z,17.20
2019-05-31T02:48:26.590Z,17.10
2019-05-31T02:50:57.319Z,17.10
2019-05-31T02:53:27.519Z,17.10
2019-05-31T02:56:01.358Z,17.20
2019-05-31T02:58:32.130Z,17.20
2019-05-31T03:01:04.215Z,17.20
2019-05-31T03:03:36.736Z,17.20
2019-05-31T03:06:06.844Z,17.20
2019-05-31T03:08:39.225Z,17.10
2019-05-31T03:11:12.466Z,17.10
2019-05-31T03:13:44.585Z,17.00
2019-05-31T03:16:20.003Z,17.10
2019-05-31T03:18:52.010Z,17.10
2019-05-31T03:21:22.935Z,17.10
2019-05-31T03:23:53.961Z,17.10
2019-05-31T03:26:24.415Z,17.00
2019-05-31T03:28:54.630Z,17.10
2019-05-31T03:31:34.073Z,17.10
2019-05-31T03:33:56.431Z,17.10
2019-05-31T03:36:34.655Z,17.10
2019-05-31T03:38:58.378Z,17.10
2019-05-31T03:41:29.008Z,17.10
2019-05-31T03:43:59.088Z,17.10
2019-05-31T03:46:40.758Z,17.10
2019-05-31T03:49:01.441Z,17.10
2019-05-31T03:51:31.556Z,17.10
2019-05-31T03:54:01.705Z,17.10
2019-05-31T03:56:31.947Z,17.10
2019-05-31T03:59:02.372Z,17.10
2019-05-31T04:01:32.758Z,17.10
2019-05-31T04:04:03.095Z,17.10
2019-05-31T04:06:33.444Z,17.10
2019-05-31T04:09:03.542Z,17.00
2019-05-31T04:11:33.792Z,17.10
2019-05-31T04:14:04.536Z,17.00
2019-05-31T04:16:49.048Z,17.10
2019-05-31T04:19:06.992Z,17.10
2019-05-31T04:21:37.156Z,17.10
2019-05-31T04:24:07.499Z,17.10
2019-05-31T04:26:37.863Z,17.10
2019-05-31T04:29:08.050Z,17.10
2019-05-31T04:31:38.613Z,17.10
2019-05-31T04:34:08.847Z,17.20
2019-05-31T04:36:39.021Z,17.10
2019-05-31T04:39:09.227Z,17.20
2019-05-31T04:41:39.900Z,17.20
2019-05-31T04:44:09.939Z,17.20
2019-05-31T04:46:39.876Z,17.20
2019-05-31T04:49:09.899Z,17.20
2019-05-31T04:51:39.968Z,17.20
2019-05-31T04:54:10.395Z,17.30
2019-05-31T04:56:41.322Z,17.30
2019-05-31T04:59:11.690Z,17.30
2019-05-31T05:01:41.619Z,17.30
2019-05-31T05:04:12.677Z,17.40
2019-05-31T05:06:42.640Z,17.40
2019-05-31T05:09:12.651Z,17.40
2019-05-31T05:11:43.266Z,17.40
2019-05-31T05:14:14.347Z,17.40
2019-05-31T05:16:48.440Z,17.40
2019-05-31T05:19:20.621Z,17.50
2019-05-31T05:21:52.102Z,17.40
2019-05-31T05:24:30.689Z,17.50
2019-05-31T05:27:06.898Z,17.50
2019-05-31T05:29:39.940Z,17.60
2019-05-31T05:32:14.711Z,17.70
2019-05-31T05:34:48.255Z,17.70
2019-05-31T05:37:22.299Z,17.60
2019-05-31T05:39:52.203Z,17.70
2019-05-31T05:42:25.007Z,17.60
2019-05-31T05:44:56.164Z,17.60
2019-05-31T05:47:28.835Z,17.50
2019-05-31T05:49:58.429Z,17.40
2019-05-31T05:52:28.316Z,17.50
2019-05-31T05:54:58.428Z,17.60
2019-05-31T05:57:30.960Z,17.60
2019-05-31T06:00:01.268Z,17.70
2019-05-31T06:02:31.750Z,17.80
2019-05-31T06:05:01.868Z,17.80
2019-05-31T06:07:32.445Z,17.90
2019-05-31T06:10:02.518Z,18.00
2019-05-31T06:12:33.177Z,17.90
2019-05-31T06:15:03.844Z,17.80
2019-05-31T06:17:34.111Z,17.90
2019-05-31T06:20:05.115Z,18.20
2019-05-31T06:22:36.805Z,18.20
2019-05-31T06:25:08.324Z,18.30
2019-05-31T06:27:38.615Z,18.60
2019-05-31T06:30:10.275Z,18.70
2019-05-31T06:32:43.034Z,18.90
2019-05-31T06:35:13.495Z,19.10
2019-05-31T06:37:43.986Z,19.10
2019-05-31T06:40:14.788Z,19.30
2019-05-31T06:42:45.076Z,19.30
2019-05-31T06:45:22.727Z,19.10
2019-05-31T06:47:54.558Z,19.10
2019-05-31T06:50:25.755Z,19.10
2019-05-31T06:52:56.082Z,19.40
2019-05-31T06:55:27.242Z,19.60
2019-05-31T06:57:57.502Z,19.70
2019-05-31T07:00:29.703Z,19.80
2019-05-31T07:03:13.626Z,19.60
2019-05-31T07:05:56.062Z,19.50
2019-05-31T07:08:17.562Z,19.30
2019-05-31T07:10:47.638Z,19.10
2019-05-31T07:13:18.013Z,18.90
2019-05-31T07:15:49.234Z,18.80
2019-05-31T07:18:34.200Z,18.90
2019-05-31T07:20:51.342Z,19.00
2019-05-31T07:23:31.629Z,19.10
2019-05-31T07:25:54.215Z,19.20
2019-05-31T07:28:24.354Z,19.40
2019-05-31T07:30:54.716Z,19.20
2019-05-31T07:33:25.172Z,19.30
2019-05-31T07:35:55.819Z,19.20
2019-05-31T07:38:26.316Z,19.20
2019-05-31T07:40:56.574Z,19.20
2019-05-31T07:43:26.927Z,19.40
2019-05-31T07:45:57.910Z,19.30
2019-05-31T07:48:28.823Z,19.40
2019-05-31T07:51:02.003Z,19.60
2019-05-31T07:53:32.587Z,19.90
2019-05-31T07:56:03.279Z,20.70
2019-05-31T07:58:33.720Z,20.60
2019-05-31T08:01:04.122Z,21.00
2019-05-31T08:03:35.672Z,21.00
2019-05-31T08:06:06.075Z,21.30
2019-05-31T08:08:39.106Z,21.20
2019-05-31T08:11:08.398Z,20.70
2019-05-31T08:13:39.277Z,21.00
2019-05-31T08:16:12.999Z,21.30
2019-05-31T08:18:41.090Z,21.60
2019-05-31T08:21:11.767Z,21.50
2019-05-31T08:23:42.323Z,21.80
2019-05-31T08:26:25.621Z,22.10
2019-05-31T08:28:45.193Z,21.80
2019-05-31T08:31:18.662Z,21.30
2019-05-31T08:33:49.534Z,21.20
2019-05-31T08:36:23.215Z,21.60
2019-05-31T08:38:53.753Z,21.40
2019-05-31T08:41:23.956Z,21.60
2019-05-31T08:43:54.200Z,22.50
2019-05-31T08:46:25.023Z,23.20
2019-05-31T08:48:55.275Z,23.50
2019-05-31T08:51:27.082Z,23.70
2019-05-31T08:53:58.172Z,24.10
2019-05-31T08:56:29.528Z,23.60
2019-05-31T08:59:00.454Z,23.80
2019-05-31T09:01:32.184Z,23.80
2019-05-31T09:04:02.780Z,23.10
2019-05-31T09:06:34.157Z,23.50
2019-05-31T09:09:06.303Z,23.70
2019-05-31T09:11:38.713Z,23.20
2019-05-31T09:14:09.063Z,22.70
2019-05-31T09:16:42.633Z,23.30
2019-05-31T09:19:13.072Z,23.10
2019-05-31T09:21:43.626Z,23.10
2019-05-31T09:24:13.964Z,23.00
2019-05-31T09:26:45.711Z,22.30
2019-05-31T09:29:16.340Z,22.00
2019-05-31T09:31:47.869Z,22.10
2019-05-31T09:34:19.364Z,22.30
2019-05-31T09:36:54.205Z,22.30
2019-05-31T09:39:37.538Z,22.40
2019-05-31T09:42:11.316Z,22.70
2019-05-31T09:44:42.161Z,23.10
2019-05-31T09:47:14.332Z,23.30
2019-05-31T09:49:47.073Z,24.20
2019-05-31T09:52:18.102Z,23.80
2019-05-31T09:54:51.841Z,23.60
2019-05-31T09:57:20.749Z,23.80
2019-05-31T09:59:52.323Z,23.40
2019-05-31T10:02:25.598Z,23.40
2019-05-31T10:04:57.558Z,23.30
2019-05-31T10:07:28.224Z,23.00
2019-05-31T10:10:02.292Z,24.40
2019-05-31T10:12:34.777Z,24.20
2019-05-31T10:15:06.436Z,24.50
2019-05-31T10:17:38.365Z,23.70
2019-05-31T10:20:10.569Z,23.70
2019-05-31T10:22:46.637Z,24.10
2019-05-31T10:25:17.414Z,24.10
2019-05-31T10:27:48.383Z,24.20
2019-05-31T10:30:47.782Z,24.30
2019-05-31T10:33:18.310Z,24.70
2019-05-31T10:35:51.560Z,25.60
2019-05-31T10:38:22.503Z,26.10
2019-05-31T10:40:54.116Z,25.00
2019-05-31T10:43:24.384Z,25.00
2019-05-31T10:45:56.210Z,24.90
2019-05-31T10:48:28.467Z,24.60
2019-05-31T10:51:00.443Z,24.10
2019-05-31T10:53:33.815Z,24.50
2019-05-31T10:56:04.910Z,24.80
2019-05-31T10:58:36.186Z,24.30
2019-05-31T11:01:06.575Z,24.40
2019-05-31T11:03:36.873Z,23.90
2019-05-31T11:06:07.650Z,23.80
2019-05-31T11:08:39.093Z,24.30
2019-05-31T11:11:09.334Z,23.80
2019-05-31T11:13:41.150Z,23.50
2019-05-31T11:16:12.601Z,23.90
2019-05-31T11:18:43.964Z,24.10
2019-05-31T11:21:14.504Z,24.20
2019-05-31T11:23:46.292Z,24.60
2019-05-31T11:26:18.187Z,24.50
2019-05-31T11:29:10.381Z,24.10
2019-05-31T11:31:40.423Z,23.80
2019-05-31T11:34:11.034Z,23.40
2019-05-31T11:36:42.043Z,23.70
2019-05-31T11:39:12.451Z,24.10
2019-05-31T11:41:43.082Z,24.20
2019-05-31T11:44:13.394Z,23.80
2019-05-31T11:46:44.509Z,24.30
2019-05-31T11:49:17.159Z,24.50
2019-05-31T11:51:47.799Z,25.30
2019-05-31T11:54:17.867Z,25.10
2019-05-31T11:56:49.419Z,24.50
2019-05-31T11:59:19.802Z,23.90
2019-05-31T12:01:50.277Z,23.90
2019-05-31T12:04:20.264Z,24.20
2019-05-31T12:06:50.693Z,23.90
2019-05-31T12:09:27.757Z,24.00
2019-05-31T12:11:58.176Z,24.50
2019-05-31T12:14:29.209Z,24.60
2019-05-31T12:16:59.343Z,24.90
2019-05-31T12:19:29.846Z,24.80
2019-05-31T12:22:01.300Z,25.90
2019-05-31T12:24:32.532Z,26.10
2019-05-31T12:27:03.072Z,25.70
2019-05-31T12:29:33.334Z,26.10
2019-05-31T12:32:03.328Z,25.70
2019-05-31T12:34:33.861Z,25.90
2019-05-31T12:37:04.395Z,25.80
2019-05-31T12:39:35.368Z,25.90
2019-05-31T12:42:05.700Z,26.40
2019-05-31T12:44:36.122Z,27.00
2019-05-31T12:47:06.581Z,26.90
2019-05-31T12:49:37.610Z,27.30
2019-05-31T12:52:07.621Z,27.70
2019-05-31T12:54:37.620Z,27.50
2019-05-31T12:57:07.817Z,26.90
2019-05-31T12:59:37.652Z,26.20
2019-05-31T13:02:07.662Z,27.00
2019-05-31T13:04:38.534Z,26.50
2019-05-31T13:07:09.157Z,26.10
2019-05-31T13:09:42.052Z,26.10
2019-05-31T13:12:13.857Z,26.50
2019-05-31T13:14:45.897Z,27.30
2019-05-31T13:17:17.549Z,27.30
2019-05-31T13:19:49.713Z,26.40
2019-05-31T13:22:23.150Z,26.60
2019-05-31T13:24:53.735Z,26.70
2019-05-31T13:27:24.624Z,27.90
2019-05-31T13:29:56.357Z,27.70
2019-05-31T13:32:27.466Z,26.60
2019-05-31T13:34:59.884Z,26.40
2019-05-31T13:37:29.545Z,26.40
2019-05-31T13:40:00.228Z,26.40
2019-05-31T13:42:30.310Z,26.50
2019-05-31T13:45:00.844Z,26.80
2019-05-31T13:47:31.252Z,27.10
2019-05-31T13:50:02.225Z,26.70
2019-05-31T13:52:41.216Z,26.10
2019-05-31T13:55:04.406Z,25.50
2019-05-31T13:57:34.424Z,26.00
2019-05-31T14:00:05.152Z,26.10
2019-05-31T14:02:35.577Z,25.90
2019-05-31T14:05:06.826Z,24.90
2019-05-31T14:07:37.079Z,25.30
2019-05-31T14:10:08.472Z,25.70
2019-05-31T14:12:39.069Z,26.20
2019-05-31T14:15:12.452Z,26.70
2019-05-31T14:17:42.606Z,27.10
2019-05-31T14:20:13.773Z,27.20
2019-05-31T14:22:58.351Z,27.00
2019-05-31T14:25:15.915Z,27.60
2019-05-31T14:27:46.109Z,27.20
2019-05-31T14:30:17.834Z,26.20
2019-05-31T14:32:48.019Z,25.60
2019-05-31T14:35:18.218Z,25.60
2019-05-31T14:37:48.438Z,25.80
2019-05-31T14:40:20.255Z,26.00
2019-05-31T14:42:50.744Z,26.00
2019-05-31T14:45:21.375Z,26.00
2019-05-31T14:47:52.670Z,26.50
2019-05-31T14:50:24.148Z,26.00
2019-05-31T14:52:54.416Z,26.00
2019-05-31T14:55:24.621Z,26.60
2019-05-31T14:58:09.210Z,26.70
2019-05-31T15:00:49.176Z,26.70
2019-05-31T15:03:19.806Z,26.30
2019-05-31T15:05:51.076Z,26.00
2019-05-31T15:08:21.442Z,26.20
2019-05-31T15:10:53.700Z,26.10
2019-05-31T15:13:24.072Z,25.70
2019-05-31T15:15:54.495Z,25.30
2019-05-31T15:18:24.603Z,25.50
2019-05-31T15:20:54.699Z,25.90
2019-05-31T15:23:35.208Z,25.40
2019-05-31T15:25:56.769Z,25.30
2019-05-31T15:28:30.353Z,25.10
2019-05-31T15:31:22.219Z,25.40
2019-05-31T15:34:27.901Z,25.50
2019-05-31T15:37:00.217Z,25.60
2019-05-31T15:39:33.436Z,25.80
2019-05-31T15:42:08.798Z,25.70
2019-05-31T15:44:39.074Z,25.60
2019-05-31T15:47:12.306Z,25.90
2019-05-31T15:49:41.134Z,25.40
2019-05-31T15:52:11.931Z,25.70
2019-05-31T15:54:42.116Z,25.80
2019-05-31T15:57:12.534Z,25.50
2019-05-31T15:59:43.009Z,26.10
2019-05-31T16:02:23.812Z,26.30
2019-05-31T16:04:45.377Z,26.50
2019-05-31T16:07:15.387Z,25.80
2019-05-31T16:09:45.896Z,25.60
2019-05-31T16:12:15.930Z,25.80
2019-05-31T16:14:46.024Z,26.10
2019-05-31T16:17:17.170Z,25.50
2019-05-31T16:19:47.523Z,25.40
2019-05-31T16:22:18.061Z,25.90
2019-05-31T16:24:48.111Z,25.60
2019-05-31T16:27:18.533Z,26.00
2019-05-31T16:29:49.137Z,26.20
2019-05-31T16:32:19.369Z,25.90
2019-05-31T16:34:49.635Z,26.00
2019-05-31T16:37:20.036Z,26.50
2019-05-31T16:39:49.917Z,25.90
2019-05-31T16:42:19.958Z,25.80
2019-05-31T16:44:49.874Z,25.40
2019-05-31T16:47:21.318Z,25.40
2019-05-31T16:49:57.345Z,25.40
2019-05-31T16:52:23.323Z,25.50
2019-05-31T16:54:54.069Z,25.10
2019-05-31T16:57:24.404Z,24.90
2019-05-31T16:59:54.642Z,24.70
2019-05-31T17:02:24.663Z,24.50
2019-05-31T17:04:55.500Z,24.20
2019-05-31T17:07:25.538Z,24.10
2019-05-31T17:09:55.578Z,24.10
2019-05-31T17:12:25.608Z,24.10
2019-05-31T17:14:55.501Z,24.30
2019-05-31T17:17:25.716Z,24.40
2019-05-31T17:19:58.218Z,24.50
2019-05-31T17:22:28.614Z,24.40
2019-05-31T17:24:58.610Z,24.20
2019-05-31T17:27:28.849Z,23.90
2019-05-31T17:29:59.213Z,23.70
2019-05-31T17:32:29.565Z,24.00
2019-05-31T17:34:59.991Z,24.00
2019-05-31T17:37:30.064Z,23.90
2019-05-31T17:40:00.467Z,23.70
2019-05-31T17:42:31.350Z,23.50
2019-05-31T17:45:01.773Z,23.50
2019-05-31T17:47:31.898Z,23.80
2019-05-31T17:50:02.306Z,23.80
2019-05-31T17:52:33.062Z,23.70
2019-05-31T17:55:04.412Z,23.90
2019-05-31T17:57:43.365Z,23.90
2019-05-31T18:00:07.259Z,24.00
2019-05-31T18:02:40.899Z,24.00
2019-05-31T18:05:14.686Z,24.00
2019-05-31T18:07:42.999Z,23.70
2019-05-31T18:10:16.904Z,23.70
2019-05-31T18:12:44.909Z,23.70
2019-05-31T18:15:19.468Z,23.80
2019-05-31T18:17:49.765Z,23.70
2019-05-31T18:20:20.275Z,23.70
2019-05-31T18:22:50.756Z,23.70
2019-05-31T18:25:26.607Z,23.60
2019-05-31T18:27:52.775Z,23.60
2019-05-31T18:30:44.524Z,23.40
2019-05-31T18:32:54.680Z,23.40
2019-05-31T18:35:25.383Z,23.50
2019-05-31T18:37:55.515Z,23.30
2019-05-31T18:40:25.731Z,23.10
2019-05-31T18:42:55.745Z,23.00
2019-05-31T18:45:25.982Z,22.60
2019-05-31T18:47:56.078Z,22.50
2019-05-31T18:50:26.000Z,22.30
2019-05-31T18:52:56.793Z,22.30
2019-05-31T18:55:37.874Z,22.20
2019-05-31T18:57:59.332Z,22.20
2019-05-31T19:00:41.870Z,22.20
2019-05-31T19:03:17.317Z,22.20
2019-05-31T19:05:47.655Z,22.00
2019-05-31T19:08:19.255Z,21.90
2019-05-31T19:10:49.778Z,21.80
2019-05-31T19:13:21.455Z,21.70
2019-05-31T19:15:51.886Z,21.90
2019-05-31T19:18:22.055Z,21.80
2019-05-31T19:21:00.855Z,21.60
2019-05-31T19:23:24.277Z,21.80
2019-05-31T19:25:54.398Z,21.50
2019-05-31T19:28:32.334Z,21.50
2019-05-31T19:31:05.366Z,21.40
2019-05-31T19:33:36.359Z,21.40
2019-05-31T19:36:18.077Z,21.30
2019-05-31T19:38:55.634Z,21.10
2019-05-31T19:41:28.082Z,20.90
2019-05-31T19:44:02.161Z,21.10
2019-05-31T19:46:33.602Z,21.00
2019-05-31T19:49:05.892Z,21.00
2019-05-31T19:51:37.243Z,21.00
2019-05-31T19:54:08.213Z,21.00
2019-05-31T19:56:39.734Z,20.80
2019-05-31T19:59:12.441Z,20.80
2019-05-31T20:01:53.835Z,20.80
2019-05-31T20:04:27.393Z,20.70
2019-05-31T20:06:59.336Z,20.60
2019-05-31T20:09:29.448Z,20.60
2019-05-31T20:11:59.663Z,20.50
2019-05-31T20:14:30.288Z,20.40
2019-05-31T20:17:00.192Z,20.40
2019-05-31T20:19:30.361Z,20.30
2019-05-31T20:22:01.242Z,20.20
2019-05-31T20:24:31.405Z,20.10
2019-05-31T20:27:01.582Z,20.10
2019-05-31T20:29:32.097Z,20.00
2019-05-31T20:32:02.458Z,20.00
2019-05-31T20:34:41.821Z,20.00
2019-05-31T20:37:18.315Z,19.90
2019-05-31T20:39:49.764Z,19.80
2019-05-31T20:42:46.554Z,19.70
2019-05-31T20:44:59.314Z,19.60
2019-05-31T20:47:38.601Z,19.70
2019-05-31T20:50:12.494Z,19.60
2019-05-31T20:53:00.938Z,19.70
2019-05-31T20:55:38.308Z,19.60
2019-05-31T20:58:16.204Z,19.60
2019-05-31T21:00:48.590Z,19.60
2019-05-31T21:03:26.738Z,19.60
2019-05-31T21:06:04.319Z,19.60
2019-05-31T21:08:38.868Z,19.60
2019-05-31T21:11:17.855Z,19.60
2019-05-31T21:13:53.046Z,19.50
2019-05-31T21:16:28.035Z,19.50
2019-05-31T21:19:02.614Z,19.50
2019-05-31T21:21:35.582Z,19.40
2019-05-31T21:24:09.273Z,19.20
2019-05-31T21:26:42.843Z,19.10
2019-05-31T21:29:16.949Z,19.20
2019-05-31T21:31:48.660Z,19.20
2019-05-31T21:34:19.748Z,19.10
2019-05-31T21:36:54.270Z,19.10
2019-05-31T21:39:26.961Z,19.10
2019-05-31T21:42:03.678Z,19.00
2019-05-31T21:44:35.162Z,18.80
2019-05-31T21:47:08.426Z,18.80
2019-05-31T21:49:42.421Z,18.70
2019-05-31T21:52:16.057Z,18.60
2019-05-31T21:54:48.894Z,18.50
2019-05-31T21:57:23.873Z,18.40
2019-05-31T21:59:56.757Z,18.40
2019-05-31T22:02:32.261Z,18.40
2019-05-31T22:05:07.164Z,18.30
2019-05-31T22:07:40.603Z,18.20
2019-05-31T22:10:16.029Z,18.20
2019-05-31T22:12:47.558Z,18.10
2019-05-31T22:15:23.099Z,18.10
2019-05-31T22:17:58.910Z,18.00
2019-05-31T22:20:32.328Z,17.90
2019-05-31T22:23:06.716Z,18.00
2019-05-31T22:25:40.212Z,18.00
2019-05-31T22:28:12.567Z,17.90
2019-05-31T22:31:13.027Z,17.90
2019-05-31T22:33:44.296Z,17.80
2019-05-31T22:36:16.938Z,17.70
2019-05-31T22:38:54.467Z,17.60
2019-05-31T22:41:25.797Z,17.60
2019-05-31T22:44:04.849Z,17.50
2019-05-31T22:46:36.941Z,17.50
2019-05-31T22:49:12.720Z,17.50
2019-05-31T22:51:44.199Z,17.50
2019-05-31T22:54:16.984Z,17.40
2019-05-31T22:56:51.647Z,17.30
2019-05-31T22:59:36.556Z,17.30
2019-05-31T23:02:00.407Z,17.30
2019-05-31T23:04:47.106Z,17.20
2019-05-31T23:07:20.259Z,17.20
2019-05-31T23:09:53.357Z,17.00
2019-05-31T23:12:26.649Z,17.00
2019-05-31T23:15:01.292Z,17.00
2019-05-31T23:17:32.861Z,16.90
2019-05-31T23:20:03.037Z,16.90
2019-05-31T23:22:33.150Z,16.80
2019-05-31T23:25:05.598Z,16.70
2019-05-31T23:27:35.637Z,16.80
2019-05-31T23:30:07.171Z,16.80
2019-05-31T23:32:38.046Z,16.70
2019-05-31T23:35:08.442Z,16.60
2019-05-31T23:37:39.834Z,16.60
2019-05-31T23:40:10.290Z,16.50
2019-05-31T23:42:40.696Z,16.40
2019-05-31T23:45:11.896Z,16.40
2019-05-31T23:47:42.982Z,16.40
2019-05-31T23:50:13.132Z,16.40
2019-05-31T23:52:43.485Z,16.30
2019-05-31T23:55:14.036Z,16.30
2019-05-31T23:57:44.155Z,16.20
